createdAt,value
2023-01-18T00:00:34.452Z,2.32
2023-01-18T00:03:02.223Z,2.53
2023-01-18T00:05:29.992Z,2.35
2023-01-18T00:07:58.415Z,2.21
2023-01-18T00:10:26.107Z,2.15
2023-01-18T00:12:54.273Z,1.93
2023-01-18T00:15:23.448Z,2.14
2023-01-18T00:17:52.568Z,1.73
2023-01-18T00:20:23.917Z,1.73
2023-01-18T00:22:53.162Z,1.97
2023-01-18T00:25:22.725Z,2.05
2023-01-18T00:27:52.734Z,1.82
2023-01-18T00:30:24.107Z,2.16
2023-01-18T00:32:55.832Z,1.93
2023-01-18T00:35:24.324Z,2.02
2023-01-18T00:37:53.399Z,1.49
2023-01-18T00:40:22.202Z,1.93
2023-01-18T00:43:08.194Z,1.88
2023-01-18T00:45:37.351Z,1.78
2023-01-18T00:48:05.462Z,1.83
2023-01-18T00:50:33.477Z,2.01
2023-01-18T00:53:01.239Z,1.69
2023-01-18T00:55:29.099Z,1.84
2023-01-18T00:57:56.809Z,1.39
2023-01-18T01:00:26.971Z,1.75
2023-01-18T01:02:56.655Z,1.98
2023-01-18T01:05:44.829Z,1.84
2023-01-18T01:08:17.073Z,1.87
2023-01-18T01:10:46.356Z,1.96
2023-01-18T01:13:32.468Z,1.91
2023-01-18T01:16:17.928Z,1.71
2023-01-18T01:19:04.552Z,2.00
2023-01-18T01:21:49.996Z,2.31
2023-01-18T01:24:35.325Z,2.38
2023-01-18T01:27:03.032Z,1.90
2023-01-18T01:29:30.773Z,2.47
2023-01-18T01:31:58.482Z,2.27
2023-01-18T01:34:29.742Z,2.17
2023-01-18T01:36:57.640Z,1.98
2023-01-18T01:39:25.570Z,2.04
2023-01-18T01:41:53.280Z,1.94
2023-01-18T01:44:55.389Z,2.11
2023-01-18T01:47:36.001Z,2.26
2023-01-18T01:50:12.447Z,2.05
2023-01-18T01:52:42.780Z,2.01
2023-01-18T01:55:15.440Z,2.03
2023-01-18T01:57:47.452Z,2.04
2023-01-18T02:00:19.542Z,2.23
2023-01-18T02:02:49.565Z,1.76
2023-01-18T02:05:19.837Z,1.80
2023-01-18T02:07:49.105Z,1.90
2023-01-18T02:10:17.754Z,1.86
2023-01-18T02:12:49.811Z,1.79
2023-01-18T02:15:20.013Z,2.00
2023-01-18T02:18:00.851Z,1.80
2023-01-18T02:21:07.144Z,2.12
2023-01-18T02:24:02.824Z,1.86
2023-01-18T02:26:52.656Z,2.03
2023-01-18T02:29:30.371Z,1.92
2023-01-18T02:32:08.697Z,1.99
2023-01-18T02:34:41.925Z,2.01
2023-01-18T02:37:21.805Z,1.69
2023-01-18T02:40:03.035Z,2.51
2023-01-18T02:42:49.602Z,2.09
2023-01-18T02:45:41.836Z,2.34
2023-01-18T02:48:10.521Z,2.11
2023-01-18T02:50:38.529Z,2.43
2023-01-18T02:53:06.233Z,2.52
2023-01-18T02:55:42.847Z,2.63
2023-01-18T02:58:19.269Z,2.86
2023-01-18T03:00:54.238Z,2.56
2023-01-18T03:03:23.701Z,2.45
2023-01-18T03:05:57.046Z,2.81
2023-01-18T03:08:28.375Z,2.74
2023-01-18T03:11:01.956Z,2.72
2023-01-18T03:13:40.740Z,2.82
2023-01-18T03:16:15.653Z,3.14
2023-01-18T03:19:01.159Z,2.01
2023-01-18T03:21:44.334Z,2.76
2023-01-18T03:24:13.159Z,2.87
2023-01-18T03:26:47.077Z,2.84
2023-01-18T03:29:34.965Z,2.52
2023-01-18T03:32:29.252Z,3.12
2023-01-18T03:35:03.261Z,2.53
2023-01-18T03:37:33.548Z,2.80
2023-01-18T03:40:04.608Z,2.58
2023-01-18T03:42:38.018Z,2.36
2023-01-18T03:45:10.161Z,1.90
2023-01-18T03:47:40.016Z,1.63
2023-01-18T03:50:08.576Z,1.21
2023-01-18T03:52:42.714Z,1.21
2023-01-18T03:55:16.775Z,1.88
2023-01-18T03:57:50.145Z,1.67
2023-01-18T04:00:19.321Z,2.18
2023-01-18T04:02:50.059Z,1.82
2023-01-18T04:05:18.803Z,2.15
2023-01-18T04:07:46.560Z,2.21
2023-01-18T04:10:14.704Z,2.30
2023-01-18T04:12:42.473Z,1.74
2023-01-18T04:15:11.311Z,2.14
2023-01-18T04:17:39.652Z,2.22
2023-01-18T04:20:10.634Z,2.59
2023-01-18T04:22:38.583Z,1.97
2023-01-18T04:25:07.085Z,2.25
2023-01-18T04:27:34.785Z,1.81
2023-01-18T04:30:02.617Z,2.01
2023-01-18T04:32:30.538Z,1.96
2023-01-18T04:34:58.277Z,1.82
2023-01-18T04:37:30.543Z,1.45
2023-01-18T04:39:58.393Z,1.16
2023-01-18T04:42:26.142Z,0.81
2023-01-18T04:44:53.924Z,1.14
2023-01-18T04:47:21.654Z,1.25
2023-01-18T04:49:49.382Z,1.51
2023-01-18T04:52:19.017Z,0.94
2023-01-18T04:54:48.285Z,0.49
2023-01-18T04:57:16.017Z,0.56
2023-01-18T04:59:46.041Z,0.50
2023-01-18T05:02:15.247Z,0.50
2023-01-18T05:04:43.547Z,0.32
2023-01-18T05:07:11.735Z,0.76
2023-01-18T05:09:39.548Z,0.68
2023-01-18T05:12:08.883Z,1.00
2023-01-18T05:14:36.643Z,0.62
2023-01-18T05:17:04.353Z,0.99
2023-01-18T05:19:32.112Z,1.32
2023-01-18T05:21:59.846Z,1.06
2023-01-18T05:24:29.791Z,1.29
2023-01-18T05:26:58.030Z,1.23
2023-01-18T05:29:27.358Z,1.00
2023-01-18T05:31:55.112Z,1.10
2023-01-18T05:34:22.844Z,1.06
2023-01-18T05:36:51.097Z,1.59
2023-01-18T05:39:18.833Z,1.76
2023-01-18T05:41:46.550Z,1.15
2023-01-18T05:44:14.544Z,1.11
2023-01-18T05:46:43.771Z,1.30
2023-01-18T05:49:11.479Z,1.34
2023-01-18T05:51:40.312Z,1.54
2023-01-18T05:54:08.072Z,1.52
2023-01-18T05:56:35.818Z,2.08
2023-01-18T05:59:03.543Z,1.59
2023-01-18T06:01:31.323Z,1.65
2023-01-18T06:04:00.610Z,1.44
2023-01-18T06:06:28.370Z,1.86
2023-01-18T06:08:56.096Z,1.51
2023-01-18T06:11:23.901Z,1.20
2023-01-18T06:13:52.323Z,1.75
2023-01-18T06:16:20.230Z,1.78
2023-01-18T06:18:48.029Z,1.41
2023-01-18T06:21:17.977Z,1.23
2023-01-18T06:23:45.976Z,0.74
2023-01-18T06:26:13.743Z,0.72
2023-01-18T06:28:41.486Z,0.82
2023-01-18T06:31:10.556Z,1.03
2023-01-18T06:33:38.344Z,1.28
2023-01-18T06:36:06.902Z,0.92
2023-01-18T06:38:36.045Z,0.83
2023-01-18T06:41:03.793Z,1.02
2023-01-18T06:43:31.548Z,1.03
2023-01-18T06:45:59.509Z,1.51
2023-01-18T06:48:28.576Z,1.77
2023-01-18T06:50:57.744Z,1.88
2023-01-18T06:53:26.297Z,1.84
2023-01-18T06:55:57.729Z,1.23
2023-01-18T06:58:26.859Z,0.76
2023-01-18T07:00:56.259Z,1.11
2023-01-18T07:03:24.438Z,1.01
2023-01-18T07:05:53.959Z,2.04
2023-01-18T07:08:22.067Z,1.10
2023-01-18T07:10:50.150Z,1.07
2023-01-18T07:13:19.623Z,1.48
2023-01-18T07:15:47.589Z,1.02
2023-01-18T07:18:16.899Z,1.00
2023-01-18T07:20:44.636Z,1.13
2023-01-18T07:23:12.380Z,1.01
2023-01-18T07:25:40.075Z,1.47
2023-01-18T07:28:07.768Z,1.12
2023-01-18T07:30:36.843Z,1.15
2023-01-18T07:33:04.852Z,1.48
2023-01-18T07:35:32.571Z,1.13
2023-01-18T07:38:00.315Z,1.09
2023-01-18T07:40:28.208Z,1.62
2023-01-18T07:42:58.653Z,1.44
2023-01-18T07:45:26.605Z,1.37
2023-01-18T07:47:56.343Z,1.35
2023-01-18T07:50:24.065Z,1.21
2023-01-18T07:52:51.806Z,1.59
2023-01-18T07:55:21.148Z,1.31
2023-01-18T07:57:48.874Z,1.38
2023-01-18T08:00:17.287Z,1.51
2023-01-18T08:02:45.117Z,1.58
2023-01-18T08:05:14.343Z,2.02
2023-01-18T08:07:42.072Z,2.03
2023-01-18T08:10:10.649Z,2.03
2023-01-18T08:12:38.377Z,1.65
2023-01-18T08:15:07.357Z,1.61
2023-01-18T08:17:36.213Z,0.99
2023-01-18T08:20:05.555Z,1.38
2023-01-18T08:22:34.671Z,1.35
2023-01-18T08:25:02.598Z,1.16
2023-01-18T08:27:30.484Z,1.08
2023-01-18T08:29:58.541Z,1.55
2023-01-18T08:32:26.373Z,1.31
2023-01-18T08:34:54.101Z,1.05
2023-01-18T08:37:23.646Z,1.18
2023-01-18T08:39:52.814Z,1.09
2023-01-18T08:42:20.533Z,1.18
2023-01-18T08:44:48.536Z,1.36
2023-01-18T08:47:18.088Z,1.56
2023-01-18T08:49:46.644Z,2.21
2023-01-18T08:52:15.307Z,2.24
2023-01-18T08:54:43.127Z,2.08
2023-01-18T08:57:12.339Z,2.06
2023-01-18T08:59:40.075Z,2.27
2023-01-18T09:02:09.900Z,2.64
2023-01-18T09:04:37.722Z,2.92
2023-01-18T09:07:05.442Z,2.51
2023-01-18T09:09:33.177Z,2.24
2023-01-18T09:12:00.943Z,2.12
2023-01-18T09:14:30.023Z,2.44
2023-01-18T09:16:57.744Z,2.74
2023-01-18T09:19:25.760Z,2.40
2023-01-18T09:21:53.523Z,2.12
2023-01-18T09:24:21.274Z,2.32
2023-01-18T09:26:51.943Z,1.95
2023-01-18T09:29:19.691Z,2.60
2023-01-18T09:31:49.346Z,2.24
2023-01-18T09:34:20.010Z,1.98
2023-01-18T09:36:50.725Z,2.61
2023-01-18T09:39:18.537Z,2.60
2023-01-18T09:41:52.486Z,2.45
2023-01-18T09:44:26.084Z,2.96
2023-01-18T09:46:59.100Z,2.92
2023-01-18T09:49:36.580Z,2.45
2023-01-18T09:52:16.035Z,2.42
2023-01-18T09:54:55.258Z,3.02
2023-01-18T09:57:39.965Z,3.51
2023-01-18T10:00:19.754Z,3.22
2023-01-18T10:02:53.660Z,3.32
2023-01-18T10:05:24.819Z,3.53
2023-01-18T10:08:03.388Z,4.07
2023-01-18T10:10:37.314Z,3.70
2023-01-18T10:13:24.900Z,4.18
2023-01-18T10:15:52.815Z,3.21
2023-01-18T10:18:21.956Z,4.01
2023-01-18T10:20:55.707Z,3.32
2023-01-18T10:23:26.621Z,3.15
2023-01-18T10:25:56.433Z,3.70
2023-01-18T10:28:34.594Z,3.41
2023-01-18T10:31:24.430Z,3.67
2023-01-18T10:33:57.416Z,3.06
2023-01-18T10:36:32.427Z,3.56
2023-01-18T10:39:04.293Z,3.47
2023-01-18T10:41:38.534Z,4.16
2023-01-18T10:44:06.507Z,3.72
2023-01-18T10:46:34.280Z,3.91
2023-01-18T10:49:04.392Z,3.51
2023-01-18T10:51:35.308Z,3.94
2023-01-18T10:54:23.316Z,4.63
2023-01-18T10:57:03.224Z,4.31
2023-01-18T10:59:37.497Z,4.39
2023-01-18T11:02:06.043Z,4.85
2023-01-18T11:04:35.429Z,3.86
2023-01-18T11:07:05.077Z,4.18
2023-01-18T11:09:42.631Z,4.98
2023-01-18T11:12:37.419Z,4.84
2023-01-18T11:15:30.522Z,5.58
2023-01-18T11:18:09.628Z,5.65
2023-01-18T11:20:46.256Z,4.90
2023-01-18T11:23:25.340Z,4.61
2023-01-18T11:25:57.127Z,5.08
2023-01-18T11:28:28.753Z,4.57
2023-01-18T11:31:01.877Z,4.84
2023-01-18T11:33:30.981Z,4.88
2023-01-18T11:36:02.197Z,4.99
2023-01-18T11:38:32.718Z,5.68
2023-01-18T11:41:13.591Z,5.54
2023-01-18T11:43:48.471Z,5.93
2023-01-18T11:46:44.708Z,5.85
2023-01-18T11:49:38.747Z,6.60
2023-01-18T11:52:18.608Z,6.97
2023-01-18T11:54:53.326Z,6.36
2023-01-18T11:57:21.331Z,5.47
2023-01-18T11:59:49.415Z,5.89
2023-01-18T12:02:43.917Z,6.28
2023-01-18T12:05:35.448Z,6.44
2023-01-18T12:08:22.450Z,7.23
2023-01-18T12:11:00.953Z,7.51
2023-01-18T12:13:36.521Z,6.83
2023-01-18T12:16:13.505Z,5.86
2023-01-18T12:19:06.596Z,5.66
2023-01-18T12:21:46.257Z,5.48
2023-01-18T12:24:34.679Z,6.04
2023-01-18T12:27:09.422Z,5.81
2023-01-18T12:30:05.067Z,5.69
2023-01-18T12:32:51.811Z,6.07
2023-01-18T12:35:49.525Z,6.65
2023-01-18T12:38:23.077Z,6.54
2023-01-18T12:41:30.929Z,5.23
2023-01-18T12:44:12.579Z,5.65
2023-01-18T12:46:47.884Z,4.99
2023-01-18T12:49:19.111Z,5.11
2023-01-18T12:51:49.993Z,5.20
2023-01-18T12:54:26.668Z,5.08
2023-01-18T12:56:58.300Z,5.48
2023-01-18T12:59:30.630Z,4.65
2023-01-18T13:02:03.223Z,5.04
2023-01-18T13:04:36.360Z,5.16
2023-01-18T13:07:08.120Z,5.47
2023-01-18T13:09:41.183Z,5.75
2023-01-18T13:12:11.487Z,6.30
2023-01-18T13:14:47.058Z,5.97
2023-01-18T13:17:20.730Z,6.08
2023-01-18T13:19:54.960Z,5.70
2023-01-18T13:22:28.651Z,5.04
2023-01-18T13:25:23.048Z,5.12
2023-01-18T13:28:02.823Z,5.28
2023-01-18T13:30:33.359Z,5.44
2023-01-18T13:33:01.667Z,4.94
2023-01-18T13:35:33.292Z,5.47
2023-01-18T13:38:03.149Z,5.01
2023-01-18T13:40:38.699Z,5.14
2023-01-18T13:43:31.749Z,5.70
2023-01-18T13:46:05.595Z,5.66
2023-01-18T13:48:46.244Z,5.71
2023-01-18T13:51:51.988Z,5.35
2023-01-18T13:55:03.820Z,5.62
2023-01-18T13:57:33.991Z,5.45
2023-01-18T14:00:04.847Z,4.92
2023-01-18T14:02:42.249Z,5.18
2023-01-18T14:05:25.164Z,5.46
2023-01-18T14:07:57.113Z,4.99
2023-01-18T14:10:30.457Z,5.25
2023-01-18T14:13:01.035Z,4.80
2023-01-18T14:15:49.220Z,5.46
2023-01-18T14:18:23.120Z,5.20
2023-01-18T14:21:03.490Z,5.15
2023-01-18T14:23:47.520Z,5.32
2023-01-18T14:26:18.356Z,4.99
2023-01-18T14:28:49.202Z,4.68
2023-01-18T14:31:22.512Z,5.28
2023-01-18T14:33:51.069Z,4.78
2023-01-18T14:36:22.092Z,5.00
2023-01-18T14:39:09.698Z,4.66
2023-01-18T14:41:38.309Z,4.70
2023-01-18T14:44:14.047Z,4.86
2023-01-18T14:46:44.295Z,4.96
2023-01-18T14:49:17.537Z,4.93
2023-01-18T14:51:49.618Z,5.01
2023-01-18T14:54:19.145Z,4.26
2023-01-18T14:56:46.875Z,4.45
2023-01-18T14:59:21.547Z,4.75
2023-01-18T15:01:56.698Z,4.09
2023-01-18T15:04:26.738Z,4.58
2023-01-18T15:06:58.712Z,5.02
2023-01-18T15:09:28.367Z,4.82
2023-01-18T15:11:59.739Z,4.82
2023-01-18T15:14:32.407Z,4.59
2023-01-18T15:17:02.932Z,4.73
2023-01-18T15:19:35.317Z,4.10
2023-01-18T15:22:05.935Z,4.12
2023-01-18T15:24:39.706Z,4.53
2023-01-18T15:27:13.351Z,4.09
2023-01-18T15:29:41.223Z,3.57
2023-01-18T15:32:15.183Z,3.98
2023-01-18T15:34:45.374Z,3.86
2023-01-18T15:37:17.211Z,3.69
2023-01-18T15:39:56.639Z,3.08
2023-01-18T15:42:27.656Z,3.58
2023-01-18T15:44:56.259Z,3.36
2023-01-18T15:47:28.394Z,3.40
2023-01-18T15:49:58.997Z,3.34
2023-01-18T15:52:38.909Z,3.54
2023-01-18T15:55:14.303Z,3.42
2023-01-18T15:57:43.280Z,3.24
2023-01-18T16:00:27.524Z,3.56
2023-01-18T16:02:57.257Z,3.03
2023-01-18T16:05:26.986Z,3.40
2023-01-18T16:08:16.165Z,3.08
2023-01-18T16:10:50.016Z,3.05
2023-01-18T16:13:35.528Z,2.47
2023-01-18T16:16:17.209Z,2.89
2023-01-18T16:18:49.285Z,3.32
2023-01-18T16:21:27.456Z,3.34
2023-01-18T16:23:57.003Z,2.65
2023-01-18T16:26:30.741Z,3.31
2023-01-18T16:29:09.278Z,2.79
2023-01-18T16:31:41.403Z,3.06
2023-01-18T16:34:28.166Z,3.41
2023-01-18T16:36:55.897Z,3.33
2023-01-18T16:39:24.489Z,3.18
2023-01-18T16:41:55.095Z,3.01
2023-01-18T16:44:23.005Z,2.71
2023-01-18T16:46:50.957Z,2.37
2023-01-18T16:49:18.777Z,2.51
2023-01-18T16:51:49.530Z,2.94
2023-01-18T16:54:18.698Z,2.41
2023-01-18T16:56:47.470Z,2.34
2023-01-18T16:59:18.413Z,2.44
2023-01-18T17:01:47.053Z,2.45
2023-01-18T17:04:15.173Z,2.53
2023-01-18T17:06:44.054Z,2.45
2023-01-18T17:09:20.094Z,1.78
2023-01-18T17:11:48.001Z,1.79
2023-01-18T17:14:15.817Z,1.84
2023-01-18T17:16:44.999Z,1.61
2023-01-18T17:19:14.450Z,1.55
2023-01-18T17:21:42.915Z,1.62
2023-01-18T17:24:12.722Z,1.90
2023-01-18T17:26:43.652Z,1.41
2023-01-18T17:29:17.668Z,1.49
2023-01-18T17:31:52.281Z,1.35
2023-01-18T17:34:27.258Z,1.41
2023-01-18T17:36:57.113Z,1.53
2023-01-18T17:39:32.003Z,1.51
2023-01-18T17:42:16.352Z,1.74
2023-01-18T17:44:44.327Z,1.91
2023-01-18T17:47:12.100Z,1.58
2023-01-18T17:49:41.227Z,1.61
2023-01-18T17:52:09.158Z,2.08
2023-01-18T17:54:36.949Z,1.57
2023-01-18T17:57:05.384Z,1.53
2023-01-18T17:59:34.603Z,1.38
2023-01-18T18:02:02.364Z,1.59
2023-01-18T18:04:31.426Z,1.80
2023-01-18T18:06:59.614Z,1.67
2023-01-18T18:09:27.536Z,1.79
2023-01-18T18:11:55.324Z,1.55
2023-01-18T18:14:23.087Z,2.16
2023-01-18T18:16:52.286Z,1.87
2023-01-18T18:19:20.120Z,2.41
2023-01-18T18:21:47.880Z,2.13
2023-01-18T18:24:15.666Z,2.38
2023-01-18T18:26:43.410Z,2.42
2023-01-18T18:29:12.251Z,2.36
2023-01-18T18:31:40.069Z,2.25
2023-01-18T18:34:10.301Z,1.98
2023-01-18T18:36:38.612Z,1.58
2023-01-18T18:39:07.321Z,1.64
2023-01-18T18:41:35.129Z,1.83
2023-01-18T18:44:02.853Z,1.83
2023-01-18T18:46:30.930Z,1.72
2023-01-18T18:48:58.787Z,1.39
2023-01-18T18:51:27.988Z,1.88
2023-01-18T18:53:56.499Z,1.49
2023-01-18T18:56:24.423Z,1.70
2023-01-18T18:58:52.148Z,1.75
2023-01-18T19:01:22.308Z,1.90
2023-01-18T19:03:51.165Z,1.47
2023-01-18T19:06:21.241Z,1.60
2023-01-18T19:08:50.855Z,1.67
2023-01-18T19:11:19.209Z,1.57
2023-01-18T19:13:49.425Z,1.77
2023-01-18T19:16:17.603Z,1.38
2023-01-18T19:18:45.398Z,1.38
2023-01-18T19:21:13.301Z,1.61
2023-01-18T19:23:41.059Z,1.14
2023-01-18T19:26:10.198Z,1.46
2023-01-18T19:28:38.065Z,1.84
2023-01-18T19:31:07.250Z,1.93
2023-01-18T19:33:35.199Z,1.56
2023-01-18T19:36:08.918Z,2.20
2023-01-18T19:38:45.664Z,1.82
2023-01-18T19:41:16.204Z,1.62
2023-01-18T19:43:44.480Z,1.43
2023-01-18T19:46:15.309Z,2.29
2023-01-18T19:48:43.641Z,1.87
2023-01-18T19:51:21.833Z,1.73
2023-01-18T19:53:50.785Z,2.07
2023-01-18T19:56:20.211Z,2.00
2023-01-18T19:58:47.960Z,2.19
2023-01-18T20:01:30.071Z,1.98
2023-01-18T20:03:58.261Z,2.28
2023-01-18T20:06:25.988Z,2.08
2023-01-18T20:08:54.047Z,1.81
2023-01-18T20:11:23.132Z,1.84
2023-01-18T20:13:51.594Z,1.70
2023-01-18T20:16:20.274Z,1.34
2023-01-18T20:18:48.773Z,1.70
2023-01-18T20:21:19.096Z,1.84
2023-01-18T20:23:47.441Z,1.71
2023-01-18T20:26:27.715Z,1.98
2023-01-18T20:29:06.716Z,1.85
2023-01-18T20:31:36.231Z,1.68
2023-01-18T20:34:04.660Z,1.82
2023-01-18T20:36:34.767Z,1.85
2023-01-18T20:39:02.806Z,1.95
2023-01-18T20:41:30.563Z,1.82
2023-01-18T20:43:58.371Z,1.27
2023-01-18T20:46:27.562Z,1.84
2023-01-18T20:48:55.328Z,1.72
2023-01-18T20:51:23.057Z,1.33
2023-01-18T20:53:50.820Z,1.47
2023-01-18T20:56:28.931Z,1.88
2023-01-18T20:58:57.866Z,1.54
2023-01-18T21:01:32.020Z,1.62
2023-01-18T21:04:01.718Z,1.12
2023-01-18T21:06:30.264Z,1.63
2023-01-18T21:08:59.683Z,1.62
2023-01-18T21:11:27.980Z,1.86
2023-01-18T21:13:57.127Z,1.65
2023-01-18T21:16:26.756Z,1.26
2023-01-18T21:18:58.669Z,1.64
2023-01-18T21:21:26.945Z,1.10
2023-01-18T21:23:54.738Z,1.48
2023-01-18T21:26:22.616Z,1.11
2023-01-18T21:28:50.364Z,1.28
2023-01-18T21:31:18.494Z,0.97
2023-01-18T21:33:46.283Z,1.10
2023-01-18T21:36:17.413Z,1.08
2023-01-18T21:38:45.423Z,1.47
2023-01-18T21:41:30.773Z,1.16
2023-01-18T21:44:12.819Z,1.21
2023-01-18T21:46:46.014Z,1.22
2023-01-18T21:49:51.978Z,0.96
2023-01-18T21:52:40.866Z,1.09
2023-01-18T21:55:09.280Z,1.27
2023-01-18T21:57:37.481Z,1.33
2023-01-18T22:00:06.804Z,1.48
2023-01-18T22:02:35.020Z,1.31
2023-01-18T22:05:03.678Z,1.00
2023-01-18T22:07:35.395Z,1.44
2023-01-18T22:10:05.545Z,1.54
2023-01-18T22:12:35.243Z,1.54
2023-01-18T22:15:04.406Z,1.33
2023-01-18T22:17:32.688Z,1.39
2023-01-18T22:20:01.695Z,1.28
2023-01-18T22:22:29.556Z,1.57
2023-01-18T22:25:00.211Z,1.26
2023-01-18T22:27:28.139Z,1.53
2023-01-18T22:29:55.936Z,1.16
2023-01-18T22:32:23.712Z,1.39
2023-01-18T22:34:51.432Z,1.40
2023-01-18T22:37:19.222Z,1.02
2023-01-18T22:39:46.938Z,1.45
2023-01-18T22:42:16.047Z,1.43
2023-01-18T22:44:44.177Z,1.60
2023-01-18T22:47:12.121Z,1.48
2023-01-18T22:49:39.851Z,1.12
2023-01-18T22:52:07.591Z,1.71
2023-01-18T22:54:35.342Z,1.44
2023-01-18T22:57:03.085Z,1.43
2023-01-18T22:59:32.232Z,1.77
2023-01-18T23:01:59.966Z,2.07
2023-01-18T23:04:29.481Z,2.08
2023-01-18T23:07:00.740Z,1.81
2023-01-18T23:09:29.334Z,1.41
2023-01-18T23:11:57.229Z,1.97
2023-01-18T23:14:42.408Z,1.56
2023-01-18T23:17:30.410Z,1.88
2023-01-18T23:19:58.144Z,1.52
2023-01-18T23:22:25.941Z,1.91
2023-01-18T23:24:53.686Z,1.45
2023-01-18T23:27:22.132Z,1.70
2023-01-18T23:29:56.601Z,1.61
2023-01-18T23:32:30.344Z,1.71
2023-01-18T23:34:58.216Z,1.42
2023-01-18T23:37:26.047Z,1.27
2023-01-18T23:40:11.271Z,1.33
2023-01-18T23:42:56.703Z,1.69
2023-01-18T23:45:42.013Z,1.54
2023-01-18T23:48:31.572Z,1.47
2023-01-18T23:51:16.757Z,1.43
2023-01-18T23:54:02.132Z,1.73
2023-01-18T23:56:29.991Z,1.36
2023-01-18T23:58:57.997Z,1.33
